sensor_id;sensor_type;location;lat;lon;timestamp;pressure;altitude;pressure_sealevel;temperature;humidity
64853;BME280;56050;55.558;-4.644;2023-02-03T00:01:40;102055.25;;;11.05;78.09
64853;BME280;56050;55.558;-4.644;2023-02-03T00:04:06;102059.09;;;11.04;78.03
64853;BME280;56050;55.558;-4.644;2023-02-03T00:06:31;102044.81;;;11.03;77.82
64853;BME280;56050;55.558;-4.644;2023-02-03T00:08:58;102056.41;;;11.04;77.87
64853;BME280;56050;55.558;-4.644;2023-02-03T00:11:25;102066.75;;;11.02;77.98
64853;BME280;56050;55.558;-4.644;2023-02-03T00:13:51;102066.41;;;11.03;78.12
64853;BME280;56050;55.558;-4.644;2023-02-03T00:16:16;102076.06;;;11.04;78.17
64853;BME280;56050;55.558;-4.644;2023-02-03T00:18:41;102066.41;;;11.03;78.03
64853;BME280;56050;55.558;-4.644;2023-02-03T00:21:07;102070.28;;;11.06;78.13
64853;BME280;56050;55.558;-4.644;2023-02-03T00:23:33;102074.56;;;11.07;78.08
64853;BME280;56050;55.558;-4.644;2023-02-03T00:26:28;102081.50;;;11.08;78.42
64853;BME280;56050;55.558;-4.644;2023-02-03T00:28:53;102105.06;;;11.11;78.53
64853;BME280;56050;55.558;-4.644;2023-02-03T00:31:21;102091.59;;;11.11;78.37
64853;BME280;56050;55.558;-4.644;2023-02-03T00:33:53;102106.63;;;11.12;78.57
64853;BME280;56050;55.558;-4.644;2023-02-03T00:36:20;102115.16;;;11.14;78.70
64853;BME280;56050;55.558;-4.644;2023-02-03T00:38:46;102129.41;;;11.14;78.73
64853;BME280;56050;55.558;-4.644;2023-02-03T00:41:13;102129.75;;;11.13;78.94
64853;BME280;56050;55.558;-4.644;2023-02-03T00:43:38;102131.00;;;11.15;78.83
64853;BME280;56050;55.558;-4.644;2023-02-03T00:46:04;102129.84;;;11.16;78.90
64853;BME280;56050;55.558;-4.644;2023-02-03T00:48:29;102130.25;;;11.18;78.66
64853;BME280;56050;55.558;-4.644;2023-02-03T00:50:55;102126.78;;;11.18;78.67
64853;BME280;56050;55.558;-4.644;2023-02-03T00:53:20;102127.94;;;11.17;78.47
64853;BME280;56050;55.558;-4.644;2023-02-03T00:55:46;102137.50;;;11.14;78.67
64853;BME280;56050;55.558;-4.644;2023-02-03T00:58:11;102134.38;;;11.12;78.54
64853;BME280;56050;55.558;-4.644;2023-02-03T01:00:37;102130.91;;;11.12;78.68
64853;BME280;56050;55.558;-4.644;2023-02-03T01:03:02;102137.00;;;11.09;78.77
64853;BME280;56050;55.558;-4.644;2023-02-03T01:05:28;102131.19;;;11.07;78.62
64853;BME280;56050;55.558;-4.644;2023-02-03T01:07:53;102130.75;;;11.05;78.60
64853;BME280;56050;55.558;-4.644;2023-02-03T01:10:19;102138.09;;;11.04;78.64
64853;BME280;56050;55.558;-4.644;2023-02-03T01:12:44;102140.78;;;11.04;78.65
64853;BME280;56050;55.558;-4.644;2023-02-03T01:15:10;102144.22;;;11.05;78.50
64853;BME280;56050;55.558;-4.644;2023-02-03T01:17:35;102152.31;;;11.05;78.45
64853;BME280;56050;55.558;-4.644;2023-02-03T01:20:01;102153.47;;;11.04;78.40
64853;BME280;56050;55.558;-4.644;2023-02-03T01:22:28;102162.69;;;11.03;78.26
64853;BME280;56050;55.558;-4.644;2023-02-03T01:24:54;102162.28;;;11.01;78.25
64853;BME280;56050;55.558;-4.644;2023-02-03T01:27:20;102171.47;;;11.00;78.16
64853;BME280;56050;55.558;-4.644;2023-02-03T01:29:45;102168.38;;;10.98;78.30
64853;BME280;56050;55.558;-4.644;2023-02-03T01:32:11;102161.78;;;10.95;77.96
64853;BME280;56050;55.558;-4.644;2023-02-03T01:34:37;102164.81;;;10.94;77.89
64853;BME280;56050;55.558;-4.644;2023-02-03T01:37:02;102150.47;;;10.90;77.55
64853;BME280;56050;55.558;-4.644;2023-02-03T01:39:28;102153.09;;;10.86;77.33
64853;BME280;56050;55.558;-4.644;2023-02-03T01:41:54;102147.19;;;10.81;76.85
64853;BME280;56050;55.558;-4.644;2023-02-03T01:44:43;102142.78;;;10.73;76.61
64853;BME280;56050;55.558;-4.644;2023-02-03T01:47:22;102134.97;;;10.68;76.29
64853;BME280;56050;55.558;-4.644;2023-02-03T01:53:07;102133.69;;;10.61;75.90
64853;BME280;56050;55.558;-4.644;2023-02-03T01:55:40;102130.47;;;10.56;75.06
64853;BME280;56050;55.558;-4.644;2023-02-03T01:58:17;102120.75;;;10.51;75.31
64853;BME280;56050;55.558;-4.644;2023-02-03T02:00:45;102122.25;;;10.49;74.89
64853;BME280;56050;55.558;-4.644;2023-02-03T02:03:12;102114.50;;;10.47;74.64
64853;BME280;56050;55.558;-4.644;2023-02-03T02:05:42;102109.03;;;10.44;74.28
64853;BME280;56050;55.558;-4.644;2023-02-03T02:08:11;102098.63;;;10.42;73.34
64853;BME280;56050;55.558;-4.644;2023-02-03T02:10:38;102105.91;;;10.42;73.36
64853;BME280;56050;55.558;-4.644;2023-02-03T02:13:04;102102.00;;;10.39;73.17
64853;BME280;56050;55.558;-4.644;2023-02-03T02:15:50;102105.41;;;10.36;72.83
64853;BME280;56050;55.558;-4.644;2023-02-03T02:29:56;102130.47;;;10.21;70.27
64853;BME280;56050;55.558;-4.644;2023-02-03T02:38:58;102154.97;;;10.16;69.69
64853;BME280;56050;55.558;-4.644;2023-02-03T02:43:59;102184.13;;;10.14;70.20
64853;BME280;56050;55.558;-4.644;2023-02-03T02:46:53;102184.47;;;10.13;70.72
64853;BME280;56050;55.558;-4.644;2023-02-03T02:52:03;102212.25;;;10.17;70.39
64853;BME280;56050;55.558;-4.644;2023-02-03T02:54:30;102221.13;;;10.17;70.04
64853;BME280;56050;55.558;-4.644;2023-02-03T02:56:59;102219.22;;;10.18;70.17
64853;BME280;56050;55.558;-4.644;2023-02-03T02:59:26;102227.31;;;10.18;70.67
64853;BME280;56050;55.558;-4.644;2023-02-03T03:01:51;102228.53;;;10.20;70.82
64853;BME280;56050;55.558;-4.644;2023-02-03T03:04:24;102228.94;;;10.22;70.90
64853;BME280;56050;55.558;-4.644;2023-02-03T03:06:55;102234.00;;;10.24;70.88
64853;BME280;56050;55.558;-4.644;2023-02-03T03:09:28;102226.34;;;10.26;69.50
64853;BME280;56050;55.558;-4.644;2023-02-03T03:12:07;102236.69;;;10.24;69.94
64853;BME280;56050;55.558;-4.644;2023-02-03T03:14:35;102234.34;;;10.22;69.21
64853;BME280;56050;55.558;-4.644;2023-02-03T03:17:05;102230.44;;;10.20;68.83
64853;BME280;56050;55.558;-4.644;2023-02-03T03:19:36;102224.97;;;10.16;68.65
64853;BME280;56050;55.558;-4.644;2023-02-03T03:22:05;102226.09;;;10.15;67.83
64853;BME280;56050;55.558;-4.644;2023-02-03T03:24:41;102228.00;;;10.15;67.17
64853;BME280;56050;55.558;-4.644;2023-02-03T03:27:23;102218.34;;;10.14;67.49
64853;BME280;56050;55.558;-4.644;2023-02-03T03:29:53;102223.41;;;10.15;66.37
64853;BME280;56050;55.558;-4.644;2023-02-03T03:32:21;102216.09;;;10.16;65.04
64853;BME280;56050;55.558;-4.644;2023-02-03T03:34:47;102211.16;;;10.18;64.90
64853;BME280;56050;55.558;-4.644;2023-02-03T03:37:37;102223.03;;;10.17;63.78
64853;BME280;56050;55.558;-4.644;2023-02-03T03:40:19;102214.28;;;10.20;63.80
64853;BME280;56050;55.558;-4.644;2023-02-03T03:42:51;102217.75;;;10.20;64.21
64853;BME280;56050;55.558;-4.644;2023-02-03T03:45:30;102218.44;;;10.17;64.01
64853;BME280;56050;55.558;-4.644;2023-02-03T03:48:08;102221.13;;;10.17;64.24
64853;BME280;56050;55.558;-4.644;2023-02-03T03:50:41;102219.13;;;10.14;64.17
64853;BME280;56050;55.558;-4.644;2023-02-03T03:53:08;102219.78;;;10.11;64.01
64853;BME280;56050;55.558;-4.644;2023-02-03T03:55:35;102220.94;;;10.10;63.65
64853;BME280;56050;55.558;-4.644;2023-02-03T03:58:07;102237.41;;;10.09;63.60
64853;BME280;56050;55.558;-4.644;2023-02-03T04:00:37;102241.69;;;10.10;63.37
64853;BME280;56050;55.558;-4.644;2023-02-03T04:03:14;102222.41;;;10.08;63.71
64853;BME280;56050;55.558;-4.644;2023-02-03T04:05:41;102217.03;;;10.08;63.91
64853;BME280;56050;55.558;-4.644;2023-02-03T04:08:07;102220.47;;;10.08;64.18
64853;BME280;56050;55.558;-4.644;2023-02-03T04:10:35;102233.50;;;10.06;64.42
64853;BME280;56050;55.558;-4.644;2023-02-03T04:13:01;102227.69;;;10.04;64.49
64853;BME280;56050;55.558;-4.644;2023-02-03T04:15:28;102228.81;;;10.03;64.77
64853;BME280;56050;55.558;-4.644;2023-02-03T04:17:54;102237.34;;;10.05;64.67
64853;BME280;56050;55.558;-4.644;2023-02-03T04:20:21;102251.13;;;10.03;64.91
64853;BME280;56050;55.558;-4.644;2023-02-03T04:22:47;102258.44;;;10.03;65.19
64853;BME280;56050;55.558;-4.644;2023-02-03T04:25:13;102266.06;;;10.01;65.08
64853;BME280;56050;55.558;-4.644;2023-02-03T04:27:38;102268.34;;;9.99;65.30
64853;BME280;56050;55.558;-4.644;2023-02-03T04:30:04;102282.59;;;9.99;65.34
64853;BME280;56050;55.558;-4.644;2023-02-03T04:32:30;102287.19;;;9.99;65.52
64853;BME280;56050;55.558;-4.644;2023-02-03T04:34:56;102282.13;;;9.97;65.61
64853;BME280;56050;55.558;-4.644;2023-02-03T04:37:23;102290.88;;;9.94;65.85
64853;BME280;56050;55.558;-4.644;2023-02-03T04:39:51;102291.66;;;9.95;65.86
64853;BME280;56050;55.558;-4.644;2023-02-03T04:42:17;102304.69;;;9.93;65.76
64853;BME280;56050;55.558;-4.644;2023-02-03T04:44:42;102310.50;;;9.95;65.83
64853;BME280;56050;55.558;-4.644;2023-02-03T04:47:08;102320.97;;;9.96;65.59
64853;BME280;56050;55.558;-4.644;2023-02-03T04:49:33;102310.50;;;9.95;65.65
64853;BME280;56050;55.558;-4.644;2023-02-03T04:51:59;102321.72;;;9.97;65.70
64853;BME280;56050;55.558;-4.644;2023-02-03T04:54:24;102334.75;;;9.95;65.67
64853;BME280;56050;55.558;-4.644;2023-02-03T04:56:50;102327.47;;;9.95;65.89
64853;BME280;56050;55.558;-4.644;2023-02-03T04:59:15;102329.72;;;9.93;65.96
64853;BME280;56050;55.558;-4.644;2023-02-03T05:01:41;102330.94;;;9.96;65.82
64853;BME280;56050;55.558;-4.644;2023-02-03T05:04:06;102330.03;;;9.92;66.00
64853;BME280;56050;55.558;-4.644;2023-02-03T05:06:32;102332.72;;;9.92;65.93
64853;BME280;56050;55.558;-4.644;2023-02-03T05:08:57;102331.19;;;9.91;66.12
64853;BME280;56050;55.558;-4.644;2023-02-03T05:11:23;102346.53;;;9.90;66.13
64853;BME280;56050;55.558;-4.644;2023-02-03T05:13:49;102354.94;;;9.89;66.14
64853;BME280;56050;55.558;-4.644;2023-02-03T05:16:15;102364.94;;;9.88;66.19
64853;BME280;56050;55.558;-4.644;2023-02-03T05:18:40;102366.50;;;9.89;66.38
64853;BME280;56050;55.558;-4.644;2023-02-03T05:21:06;102363.81;;;9.89;66.13
64853;BME280;56050;55.558;-4.644;2023-02-03T05:23:32;102367.28;;;9.90;66.38
64853;BME280;56050;55.558;-4.644;2023-02-03T05:25:57;102356.16;;;9.91;66.25
64853;BME280;56050;55.558;-4.644;2023-02-03T05:28:23;102343.84;;;9.90;66.27
64853;BME280;56050;55.558;-4.644;2023-02-03T05:30:49;102340.38;;;9.90;66.29
64853;BME280;56050;55.558;-4.644;2023-02-03T05:33:14;102338.78;;;9.89;66.20
64853;BME280;56050;55.558;-4.644;2023-02-03T05:35:39;102345.31;;;9.88;66.23
64853;BME280;56050;55.558;-4.644;2023-02-03T05:38:05;102353.28;;;9.84;66.34
64853;BME280;56050;55.558;-4.644;2023-02-03T05:40:31;102350.16;;;9.82;66.23
64853;BME280;56050;55.558;-4.644;2023-02-03T05:43:15;102357.78;;;9.80;66.41
64853;BME280;56050;55.558;-4.644;2023-02-03T05:45:40;102356.22;;;9.79;66.60
64853;BME280;56050;55.558;-4.644;2023-02-03T05:48:06;102377.75;;;9.79;66.56
64853;BME280;56050;55.558;-4.644;2023-02-03T05:50:32;102379.66;;;9.79;66.61
64853;BME280;56050;55.558;-4.644;2023-02-03T05:53:02;102386.94;;;9.78;66.51
64853;BME280;56050;55.558;-4.644;2023-02-03T05:55:29;102387.38;;;9.80;66.50
64853;BME280;56050;55.558;-4.644;2023-02-03T05:57:55;102390.06;;;9.80;66.30
64853;BME280;56050;55.558;-4.644;2023-02-03T06:00:22;102396.25;;;9.81;66.39
64853;BME280;56050;55.558;-4.644;2023-02-03T06:02:56;102395.13;;;9.82;65.81
64853;BME280;56050;55.558;-4.644;2023-02-03T06:05:23;102396.34;;;9.84;66.06
64853;BME280;56050;55.558;-4.644;2023-02-03T06:07:49;102402.53;;;9.85;66.12
64853;BME280;56050;55.558;-4.644;2023-02-03T06:10:15;102399.16;;;9.88;65.68
64853;BME280;56050;55.558;-4.644;2023-02-03T06:12:41;102405.34;;;9.88;65.52
64853;BME280;56050;55.558;-4.644;2023-02-03T06:15:06;102402.72;;;9.92;65.31
64853;BME280;56050;55.558;-4.644;2023-02-03T06:17:32;102391.94;;;9.92;65.62
64853;BME280;56050;55.558;-4.644;2023-02-03T06:19:58;102376.59;;;9.92;65.77
64853;BME280;56050;55.558;-4.644;2023-02-03T06:22:23;102380.06;;;9.93;65.64
64853;BME280;56050;55.558;-4.644;2023-02-03T06:24:49;102383.19;;;9.95;65.59
64853;BME280;56050;55.558;-4.644;2023-02-03T06:27:15;102378.59;;;9.95;65.56
64853;BME280;56050;55.558;-4.644;2023-02-03T06:29:41;102377.13;;;9.98;65.63
64853;BME280;56050;55.558;-4.644;2023-02-03T06:32:07;102379.94;;;10.01;65.73
64853;BME280;56050;55.558;-4.644;2023-02-03T06:34:32;102388.44;;;10.03;65.72
64853;BME280;56050;55.558;-4.644;2023-02-03T06:36:58;102391.94;;;10.04;65.77
64853;BME280;56050;55.558;-4.644;2023-02-03T06:39:23;102386.19;;;10.05;65.97
64853;BME280;56050;55.558;-4.644;2023-02-03T06:41:49;102381.28;;;10.08;65.99
64853;BME280;56050;55.558;-4.644;2023-02-03T06:44:16;102398.66;;;10.10;66.03
64853;BME280;56050;55.558;-4.644;2023-02-03T06:46:42;102402.91;;;10.11;66.17
64853;BME280;56050;55.558;-4.644;2023-02-03T06:49:08;102410.31;;;10.14;66.20
64853;BME280;56050;55.558;-4.644;2023-02-03T06:51:33;102418.88;;;10.16;66.20
64853;BME280;56050;55.558;-4.644;2023-02-03T06:53:59;102425.00;;;10.17;66.33
64853;BME280;56050;55.558;-4.644;2023-02-03T06:56:24;102427.38;;;10.18;66.41
64853;BME280;56050;55.558;-4.644;2023-02-03T06:58:50;102438.59;;;10.20;66.43
64853;BME280;56050;55.558;-4.644;2023-02-03T07:01:15;102443.28;;;10.23;66.38
64853;BME280;56050;55.558;-4.644;2023-02-03T07:03:41;102442.19;;;10.24;66.35
64853;BME280;56050;55.558;-4.644;2023-02-03T07:06:06;102438.00;;;10.27;66.37
64853;BME280;56050;55.558;-4.644;2023-02-03T07:08:32;102439.25;;;10.29;66.50
64853;BME280;56050;55.558;-4.644;2023-02-03T07:10:57;102449.66;;;10.31;66.36
64853;BME280;56050;55.558;-4.644;2023-02-03T07:13:23;102443.94;;;10.32;66.36
64853;BME280;56050;55.558;-4.644;2023-02-03T07:15:48;102457.06;;;10.34;66.41
64853;BME280;56050;55.558;-4.644;2023-02-03T07:18:14;102460.19;;;10.36;66.34
64853;BME280;56050;55.558;-4.644;2023-02-03T07:20:40;102455.59;;;10.36;66.48
64853;BME280;56050;55.558;-4.644;2023-02-03T07:23:05;102462.56;;;10.37;66.55
64853;BME280;56050;55.558;-4.644;2023-02-03T07:25:31;102470.28;;;10.39;66.55
64853;BME280;56050;55.558;-4.644;2023-02-03T07:27:56;102478.03;;;10.40;66.43
64853;BME280;56050;55.558;-4.644;2023-02-03T07:30:22;102480.38;;;10.42;66.64
64853;BME280;56050;55.558;-4.644;2023-02-03T07:32:48;102479.69;;;10.45;66.61
64853;BME280;56050;55.558;-4.644;2023-02-03T07:35:14;102485.19;;;10.48;66.65
64853;BME280;56050;55.558;-4.644;2023-02-03T07:37:41;102479.13;;;10.51;66.59
64853;BME280;56050;55.558;-4.644;2023-02-03T07:40:08;102489.22;;;10.54;66.61
64853;BME280;56050;55.558;-4.644;2023-02-03T07:42:33;102486.28;;;10.59;66.52
64853;BME280;56050;55.558;-4.644;2023-02-03T07:44:59;102487.16;;;10.63;66.60
64853;BME280;56050;55.558;-4.644;2023-02-03T07:47:24;102479.59;;;10.69;66.69
64853;BME280;56050;55.558;-4.644;2023-02-03T07:49:49;102487.47;;;10.74;66.36
64853;BME280;56050;55.558;-4.644;2023-02-03T07:52:15;102489.22;;;10.82;66.48
64853;BME280;56050;55.558;-4.644;2023-02-03T07:54:41;102502.09;;;10.89;66.37
64853;BME280;56050;55.558;-4.644;2023-02-03T07:57:06;102504.22;;;10.95;66.13
64853;BME280;56050;55.558;-4.644;2023-02-03T07:59:31;102505.84;;;11.00;66.16
64853;BME280;56050;55.558;-4.644;2023-02-03T08:01:58;102509.88;;;11.06;66.20
64853;BME280;56050;55.558;-4.644;2023-02-03T08:04:23;102516.84;;;11.07;65.93
64853;BME280;56050;55.558;-4.644;2023-02-03T08:06:49;102523.00;;;11.07;66.08
64853;BME280;56050;55.558;-4.644;2023-02-03T08:09:15;102523.78;;;11.08;66.13
64853;BME280;56050;55.558;-4.644;2023-02-03T08:11:40;102529.97;;;11.08;66.02
64853;BME280;56050;55.558;-4.644;2023-02-03T08:14:06;102529.97;;;11.08;66.05
64853;BME280;56050;55.558;-4.644;2023-02-03T08:16:31;102534.69;;;11.11;66.19
64853;BME280;56050;55.558;-4.644;2023-02-03T08:18:56;102530.88;;;11.12;66.10
64853;BME280;56050;55.558;-4.644;2023-02-03T08:21:22;102538.28;;;11.15;66.08
64853;BME280;56050;55.558;-4.644;2023-02-03T08:23:48;102540.63;;;11.17;66.16
64853;BME280;56050;55.558;-4.644;2023-02-03T08:26:13;102541.41;;;11.17;66.18
64853;BME280;56050;55.558;-4.644;2023-02-03T08:28:39;102535.66;;;11.19;66.17
64853;BME280;56050;55.558;-4.644;2023-02-03T08:31:11;102550.28;;;11.18;66.21
64853;BME280;56050;55.558;-4.644;2023-02-03T08:33:36;102554.53;;;11.19;66.10
64853;BME280;56050;55.558;-4.644;2023-02-03T08:36:02;102559.06;;;11.15;66.18
64853;BME280;56050;55.558;-4.644;2023-02-03T08:38:27;102552.44;;;11.12;66.34
64853;BME280;56050;55.558;-4.644;2023-02-03T08:40:53;102562.44;;;11.12;66.38
64853;BME280;56050;55.558;-4.644;2023-02-03T08:43:18;102564.00;;;11.13;66.57
64853;BME280;56050;55.558;-4.644;2023-02-03T08:45:45;102559.41;;;11.13;66.61
64853;BME280;56050;55.558;-4.644;2023-02-03T08:48:11;102568.28;;;11.14;66.63
64853;BME280;56050;55.558;-4.644;2023-02-03T08:50:36;102568.72;;;11.16;66.49
64853;BME280;56050;55.558;-4.644;2023-02-03T08:53:01;102585.69;;;11.16;66.51
64853;BME280;56050;55.558;-4.644;2023-02-03T08:55:27;102591.06;;;11.16;66.60
64853;BME280;56050;55.558;-4.644;2023-02-03T08:57:52;102593.34;;;11.14;66.81
64853;BME280;56050;55.558;-4.644;2023-02-03T09:00:18;102597.09;;;11.10;67.12
64853;BME280;56050;55.558;-4.644;2023-02-03T09:02:44;102606.19;;;11.05;67.18
64853;BME280;56050;55.558;-4.644;2023-02-03T09:05:09;102609.13;;;11.00;67.23
64853;BME280;56050;55.558;-4.644;2023-02-03T09:07:35;102612.88;;;10.96;67.44
64853;BME280;56050;55.558;-4.644;2023-02-03T09:10:00;102617.34;;;10.92;67.57
64853;BME280;56050;55.558;-4.644;2023-02-03T09:12:26;102624.22;;;10.89;67.67
64853;BME280;56050;55.558;-4.644;2023-02-03T09:14:51;102621.88;;;10.88;67.66
64853;BME280;56050;55.558;-4.644;2023-02-03T09:17:17;102620.28;;;10.87;67.85
64853;BME280;56050;55.558;-4.644;2023-02-03T09:19:42;102621.75;;;10.84;67.90
64853;BME280;56050;55.558;-4.644;2023-02-03T09:22:07;102621.31;;;10.82;68.04
64853;BME280;56050;55.558;-4.644;2023-02-03T09:24:33;102621.22;;;10.79;68.08
64853;BME280;56050;55.558;-4.644;2023-02-03T09:26:58;102622.34;;;10.78;68.33
64853;BME280;56050;55.558;-4.644;2023-02-03T09:29:25;102627.72;;;10.78;68.22
64853;BME280;56050;55.558;-4.644;2023-02-03T09:31:51;102632.31;;;10.77;68.43
64853;BME280;56050;55.558;-4.644;2023-02-03T09:34:18;102630.41;;;10.78;68.31
64853;BME280;56050;55.558;-4.644;2023-02-03T09:36:44;102630.88;;;10.80;68.27
64853;BME280;56050;55.558;-4.644;2023-02-03T09:39:09;102630.19;;;10.83;68.35
64853;BME280;56050;55.558;-4.644;2023-02-03T09:44:41;102644.69;;;10.90;68.32
64853;BME280;56050;55.558;-4.644;2023-02-03T09:47:17;102642.53;;;10.96;68.24
64853;BME280;56050;55.558;-4.644;2023-02-03T09:49:58;102648.78;;;11.00;68.26
64853;BME280;56050;55.558;-4.644;2023-02-03T09:52:31;102650.47;;;11.04;68.24
64853;BME280;56050;55.558;-4.644;2023-02-03T09:55:04;102653.25;;;11.08;68.13
64853;BME280;56050;55.558;-4.644;2023-02-03T09:57:39;102651.09;;;11.13;68.20
64853;BME280;56050;55.558;-4.644;2023-02-03T10:00:20;102653.56;;;11.18;68.09
64853;BME280;56050;55.558;-4.644;2023-02-03T10:11:44;102660.03;;;11.30;68.07
64853;BME280;56050;55.558;-4.644;2023-02-03T10:14:49;102657.81;;;11.32;68.38
64853;BME280;56050;55.558;-4.644;2023-02-03T10:17:42;102660.13;;;11.33;68.28
64853;BME280;56050;55.558;-4.644;2023-02-03T10:20:17;102652.47;;;11.35;68.37
64853;BME280;56050;55.558;-4.644;2023-02-03T10:22:52;102661.03;;;11.37;68.34
64853;BME280;56050;55.558;-4.644;2023-02-03T10:28:15;102661.47;;;11.39;68.58
64853;BME280;56050;55.558;-4.644;2023-02-03T10:30:53;102667.66;;;11.40;68.58
64853;BME280;56050;55.558;-4.644;2023-02-03T10:33:27;102674.59;;;11.41;68.53
64853;BME280;56050;55.558;-4.644;2023-02-03T10:35:56;102674.97;;;11.39;68.70
64853;BME280;56050;55.558;-4.644;2023-02-03T10:40:49;102682.38;;;11.42;68.90
64853;BME280;56050;55.558;-4.644;2023-02-03T10:43:14;102685.50;;;11.44;68.92
64853;BME280;56050;55.558;-4.644;2023-02-03T10:45:58;102683.25;;;11.46;68.96
64853;BME280;56050;55.558;-4.644;2023-02-03T10:48:24;102686.41;;;11.48;68.91
64853;BME280;56050;55.558;-4.644;2023-02-03T10:50:51;102689.88;;;11.49;69.08
64853;BME280;56050;55.558;-4.644;2023-02-03T10:53:31;102682.56;;;11.49;69.12
64853;BME280;56050;55.558;-4.644;2023-02-03T10:56:04;102684.94;;;11.51;69.25
64853;BME280;56050;55.558;-4.644;2023-02-03T10:58:32;102698.06;;;11.52;69.32
64853;BME280;56050;55.558;-4.644;2023-02-03T11:01:12;102689.19;;;11.52;69.49
64853;BME280;56050;55.558;-4.644;2023-02-03T11:04:00;102679.97;;;11.53;69.38
64853;BME280;56050;55.558;-4.644;2023-02-03T11:06:27;102683.88;;;11.55;69.70
64853;BME280;56050;55.558;-4.644;2023-02-03T11:08:53;102683.56;;;11.57;69.63
64853;BME280;56050;55.558;-4.644;2023-02-03T11:14:16;102679.72;;;11.58;69.94
64853;BME280;56050;55.558;-4.644;2023-02-03T11:16:42;102686.69;;;11.59;69.99
64853;BME280;56050;55.558;-4.644;2023-02-03T11:19:20;102689.38;;;11.59;70.40
64853;BME280;56050;55.558;-4.644;2023-02-03T11:21:49;102686.00;;;11.62;70.15
64853;BME280;56050;55.558;-4.644;2023-02-03T11:24:51;102682.50;;;11.61;70.20
64853;BME280;56050;55.558;-4.644;2023-02-03T11:27:18;102691.03;;;11.63;70.39
64853;BME280;56050;55.558;-4.644;2023-02-03T11:29:48;102693.41;;;11.65;70.68
64853;BME280;56050;55.558;-4.644;2023-02-03T11:32:44;102694.19;;;11.65;70.81
64853;BME280;56050;55.558;-4.644;2023-02-03T11:35:17;102699.25;;;11.67;70.88
64853;BME280;56050;55.558;-4.644;2023-02-03T11:37:48;102704.00;;;11.70;71.42
64853;BME280;56050;55.558;-4.644;2023-02-03T11:42:49;102695.19;;;11.73;71.41
64853;BME280;56050;55.558;-4.644;2023-02-03T11:45:28;102698.75;;;11.77;71.61
64853;BME280;56050;55.558;-4.644;2023-02-03T11:54:18;102705.75;;;11.94;72.15
64853;BME280;56050;55.558;-4.644;2023-02-03T12:02:04;102705.28;;;12.04;71.84
64853;BME280;56050;55.558;-4.644;2023-02-03T12:19:10;102728.00;;;12.18;72.44
64853;BME280;56050;55.558;-4.644;2023-02-03T12:21:45;102727.22;;;12.18;72.63
64853;BME280;56050;55.558;-4.644;2023-02-03T12:27:19;102747.19;;;12.13;73.16
64853;BME280;56050;55.558;-4.644;2023-02-03T12:29:58;102755.97;;;12.10;72.94
64853;BME280;56050;55.558;-4.644;2023-02-03T12:37:58;102752.41;;;12.06;73.18
64853;BME280;56050;55.558;-4.644;2023-02-03T12:40:47;102755.13;;;12.06;73.31
64853;BME280;56050;55.558;-4.644;2023-02-03T12:45:57;102748.81;;;12.02;73.39
64853;BME280;56050;55.558;-4.644;2023-02-03T12:48:30;102749.19;;;12.01;73.98
64853;BME280;56050;55.558;-4.644;2023-02-03T12:51:03;102753.78;;;12.00;74.10
64853;BME280;56050;55.558;-4.644;2023-02-03T12:53:33;102753.00;;;12.00;74.30
64853;BME280;56050;55.558;-4.644;2023-02-03T12:56:10;102754.91;;;11.99;74.43
64853;BME280;56050;55.558;-4.644;2023-02-03T12:58:56;102760.69;;;11.98;74.38
64853;BME280;56050;55.558;-4.644;2023-02-03T13:01:33;102757.53;;;11.96;74.48
64853;BME280;56050;55.558;-4.644;2023-02-03T13:06:48;102760.81;;;11.89;74.68
64853;BME280;56050;55.558;-4.644;2023-02-03T13:09:36;102760.03;;;11.89;74.51
64853;BME280;56050;55.558;-4.644;2023-02-03T13:14:48;102758.31;;;11.96;74.60
64853;BME280;56050;55.558;-4.644;2023-02-03T13:20:02;102770.00;;;12.00;74.60
64853;BME280;56050;55.558;-4.644;2023-02-03T13:22:28;102775.16;;;12.05;74.37
64853;BME280;56050;55.558;-4.644;2023-02-03T13:28:15;102790.16;;;12.18;74.49
64853;BME280;56050;55.558;-4.644;2023-02-03T13:33:50;102771.09;;;12.27;74.38
64853;BME280;56050;55.558;-4.644;2023-02-03T13:41:40;102751.84;;;12.28;74.80
64853;BME280;56050;55.558;-4.644;2023-02-03T13:44:11;102756.34;;;12.24;74.65
64853;BME280;56050;55.558;-4.644;2023-02-03T13:46:38;102770.91;;;12.20;74.81
64853;BME280;56050;55.558;-4.644;2023-02-03T13:49:05;102776.22;;;12.16;74.70
64853;BME280;56050;55.558;-4.644;2023-02-03T13:51:52;102796.25;;;12.15;74.59
64853;BME280;56050;55.558;-4.644;2023-02-03T13:54:37;102797.47;;;12.18;74.72
64853;BME280;56050;55.558;-4.644;2023-02-03T13:57:31;102784.31;;;12.16;74.49
64853;BME280;56050;55.558;-4.644;2023-02-03T13:59:59;102794.78;;;12.18;74.58
64853;BME280;56050;55.558;-4.644;2023-02-03T14:04:53;102812.31;;;12.24;74.35
64853;BME280;56050;55.558;-4.644;2023-02-03T14:07:39;102817.91;;;12.31;74.19
64853;BME280;56050;55.558;-4.644;2023-02-03T14:17:54;102822.75;;;12.53;73.61
64853;BME280;56050;55.558;-4.644;2023-02-03T14:25:33;102847.41;;;12.52;73.33
64853;BME280;56050;55.558;-4.644;2023-02-03T14:28:06;102836.59;;;12.52;73.27
64853;BME280;56050;55.558;-4.644;2023-02-03T14:31:05;102832.34;;;12.51;73.20
64853;BME280;56050;55.558;-4.644;2023-02-03T14:36:33;102848.97;;;12.53;73.18
64853;BME280;56050;55.558;-4.644;2023-02-03T14:39:49;102850.91;;;12.52;73.15
64853;BME280;56050;55.558;-4.644;2023-02-03T14:44:38;102849.50;;;12.58;72.99
64853;BME280;56050;55.558;-4.644;2023-02-03T14:55:57;102853.59;;;12.52;72.87
64853;BME280;56050;55.558;-4.644;2023-02-03T14:58:34;102863.19;;;12.50;73.05
64853;BME280;56050;55.558;-4.644;2023-02-03T15:01:04;102854.28;;;12.49;73.12
64853;BME280;56050;55.558;-4.644;2023-02-03T15:03:31;102858.16;;;12.48;72.99
64853;BME280;56050;55.558;-4.644;2023-02-03T15:06:02;102850.78;;;12.49;72.92
64853;BME280;56050;55.558;-4.644;2023-02-03T15:08:36;102845.31;;;12.45;72.82